createdAt,value
2019-02-06T00:01:56.251Z,84.13
2019-02-06T00:04:25.317Z,76.50
2019-02-06T00:06:54.090Z,92.10
2019-02-06T00:09:22.943Z,83.33
2019-02-06T00:11:51.992Z,83.00
2019-02-06T00:14:20.900Z,85.30
2019-02-06T00:16:50.042Z,85.33
2019-02-06T00:19:19.507Z,76.03
2019-02-06T00:21:48.525Z,83.47
2019-02-06T00:24:17.698Z,79.33
2019-02-06T00:26:46.722Z,84.23
2019-02-06T00:29:15.598Z,89.93
2019-02-06T00:31:44.543Z,86.87
2019-02-06T00:34:13.843Z,95.60
2019-02-06T00:36:42.689Z,85.50
2019-02-06T00:39:14.301Z,88.57
2019-02-06T00:41:43.210Z,89.43
2019-02-06T00:44:12.008Z,84.27
2019-02-06T00:46:40.991Z,85.17
2019-02-06T00:49:09.948Z,87.53
2019-02-06T00:51:38.650Z,85.80
2019-02-06T00:54:07.487Z,84.00
2019-02-06T00:56:36.410Z,83.53
2019-02-06T00:59:05.861Z,84.33
2019-02-06T01:01:34.729Z,80.63
2019-02-06T01:04:03.836Z,87.13
2019-02-06T01:06:32.878Z,90.00
2019-02-06T01:09:02.095Z,89.00
2019-02-06T01:11:30.953Z,93.20
2019-02-06T01:13:59.876Z,80.47
2019-02-06T01:16:28.780Z,95.63
2019-02-06T01:18:57.597Z,88.57
2019-02-06T01:21:29.694Z,89.93
2019-02-06T01:23:58.576Z,87.07
2019-02-06T01:26:27.498Z,86.27
2019-02-06T01:28:56.461Z,90.83
2019-02-06T01:31:26.199Z,82.97
2019-02-06T01:33:56.669Z,80.93
2019-02-06T01:36:26.192Z,85.83
2019-02-06T01:38:55.323Z,89.17
2019-02-06T01:41:24.218Z,89.07
2019-02-06T01:43:53.051Z,85.33
2019-02-06T01:46:22.122Z,84.63
2019-02-06T01:48:50.953Z,85.07
2019-02-06T01:51:19.983Z,89.83
2019-02-06T01:53:48.842Z,79.13
2019-02-06T01:56:17.671Z,80.83
2019-02-06T01:58:46.576Z,79.73
2019-02-06T02:01:15.339Z,82.87
2019-02-06T02:03:44.103Z,83.17
2019-02-06T02:06:13.242Z,91.13
2019-02-06T02:08:44.630Z,81.87
2019-02-06T02:11:14.241Z,81.47
2019-02-06T02:13:43.612Z,78.97
2019-02-06T02:16:12.729Z,80.40
2019-02-06T02:18:41.581Z,75.87
2019-02-06T02:21:10.430Z,80.10
2019-02-06T02:23:39.717Z,82.80
2019-02-06T02:26:08.667Z,81.17
2019-02-06T02:28:37.476Z,79.97
2019-02-06T02:31:06.474Z,85.50
2019-02-06T02:33:35.286Z,80.00
2019-02-06T02:36:15.308Z,81.37
2019-02-06T02:38:34.693Z,73.77
2019-02-06T02:41:03.537Z,81.97
2019-02-06T02:43:32.863Z,75.97
2019-02-06T02:46:01.882Z,75.93
2019-02-06T02:48:30.952Z,78.67
2019-02-06T02:50:59.842Z,79.50
2019-02-06T02:53:28.596Z,79.83
2019-02-06T02:55:57.341Z,70.60
2019-02-06T02:58:26.089Z,76.83
2019-02-06T03:00:56.579Z,83.23
2019-02-06T03:03:45.331Z,81.10
2019-02-06T03:06:27.218Z,77.60
2019-02-06T03:08:44.926Z,83.40
2019-02-06T03:11:14.138Z,81.43
2019-02-06T03:13:43.254Z,79.43
2019-02-06T03:16:12.090Z,77.53
2019-02-06T03:18:41.042Z,78.50
2019-02-06T03:21:10.329Z,78.27
2019-02-06T03:23:39.108Z,74.83
2019-02-06T03:26:07.930Z,75.07
2019-02-06T03:28:36.872Z,75.63
2019-02-06T03:31:05.967Z,80.07
2019-02-06T03:33:34.761Z,78.93
2019-02-06T03:36:04.217Z,76.67
2019-02-06T03:38:33.029Z,79.43
2019-02-06T03:41:01.760Z,69.93
2019-02-06T03:43:30.574Z,73.43
2019-02-06T03:46:00.800Z,80.13
2019-02-06T03:48:29.963Z,74.87
2019-02-06T03:50:58.827Z,74.37
2019-02-06T03:53:27.785Z,69.40
2019-02-06T03:55:56.732Z,70.73
2019-02-06T03:58:25.743Z,72.13
2019-02-06T04:00:54.764Z,70.10
2019-02-06T04:03:25.126Z,73.33
2019-02-06T04:05:55.362Z,71.70
2019-02-06T04:08:24.235Z,67.90
2019-02-06T04:10:53.046Z,69.60
2019-02-06T04:13:22.043Z,76.17
2019-02-06T04:15:52.169Z,72.37
2019-02-06T04:18:39.008Z,64.67
2019-02-06T04:21:07.950Z,66.07
2019-02-06T04:23:36.861Z,73.67
2019-02-06T04:26:05.957Z,74.23
2019-02-06T04:28:34.919Z,69.03
2019-02-06T04:31:03.845Z,59.97
2019-02-06T04:33:33.612Z,65.37
2019-02-06T04:36:02.335Z,59.97
2019-02-06T04:38:31.128Z,70.87
2019-02-06T04:41:00.154Z,64.33
2019-02-06T04:43:29.012Z,66.77
2019-02-06T04:45:57.821Z,68.00
2019-02-06T04:48:26.610Z,64.37
2019-02-06T04:50:55.553Z,63.93
2019-02-06T04:53:25.425Z,68.03
2019-02-06T04:55:54.177Z,58.27
2019-02-06T04:58:23.033Z,59.10
2019-02-06T05:00:51.946Z,62.00
2019-02-06T05:03:20.949Z,60.90
2019-02-06T05:05:50.326Z,61.87
2019-02-06T05:08:19.265Z,58.53
2019-02-06T05:10:48.238Z,61.73
2019-02-06T05:13:16.988Z,57.93
2019-02-06T05:15:46.256Z,59.37
2019-02-06T05:18:15.323Z,59.80
2019-02-06T05:20:44.540Z,61.23
2019-02-06T05:23:13.367Z,57.87
2019-02-06T05:25:43.265Z,61.17
2019-02-06T05:28:12.239Z,57.80
2019-02-06T05:30:41.117Z,58.80
2019-02-06T05:33:10.022Z,61.80
2019-02-06T05:35:38.796Z,57.63
2019-02-06T05:38:08.555Z,54.73
2019-02-06T05:40:37.506Z,60.83
2019-02-06T05:43:06.341Z,56.57
2019-02-06T05:45:35.282Z,55.93
2019-02-06T05:48:04.552Z,55.60
2019-02-06T05:50:33.544Z,55.90
2019-02-06T05:53:02.832Z,54.57
2019-02-06T05:55:31.810Z,52.07
2019-02-06T05:58:00.875Z,55.50
2019-02-06T06:00:31.752Z,55.13
2019-02-06T06:03:00.674Z,53.60
2019-02-06T06:05:29.699Z,54.17
2019-02-06T06:07:58.741Z,56.00
2019-02-06T06:10:28.042Z,56.57
2019-02-06T06:12:56.990Z,56.93
2019-02-06T06:15:25.826Z,55.23
2019-02-06T06:17:54.805Z,60.33
2019-02-06T06:20:23.808Z,55.97
2019-02-06T06:22:52.846Z,53.30
2019-02-06T06:25:22.247Z,51.17
2019-02-06T06:27:51.103Z,56.43
2019-02-06T06:30:21.318Z,55.37
2019-02-06T06:32:50.483Z,51.50
2019-02-06T06:35:20.057Z,55.43
2019-02-06T06:37:59.406Z,59.03
2019-02-06T06:40:23.924Z,55.63
2019-02-06T06:42:52.933Z,61.30
2019-02-06T06:45:24.500Z,54.30
2019-02-06T06:47:53.696Z,54.23
2019-02-06T06:50:26.784Z,53.60
2019-02-06T06:52:56.358Z,59.07
2019-02-06T06:55:25.568Z,52.80
2019-02-06T06:57:54.689Z,55.77
2019-02-06T07:00:28.793Z,54.13
2019-02-06T07:02:57.808Z,48.63
2019-02-06T07:05:26.681Z,53.40
2019-02-06T07:07:55.976Z,48.73
2019-02-06T07:10:25.223Z,54.17
2019-02-06T07:12:54.219Z,50.30
2019-02-06T07:15:33.839Z,50.60
2019-02-06T07:18:03.150Z,48.97
2019-02-06T07:20:32.302Z,54.43
2019-02-06T07:23:01.882Z,52.97
2019-02-06T07:25:30.651Z,53.33
2019-02-06T07:27:59.582Z,52.97
2019-02-06T07:30:31.028Z,48.10
2019-02-06T07:33:00.170Z,49.13
2019-02-06T07:35:29.318Z,49.20
2019-02-06T07:38:02.323Z,45.17
2019-02-06T07:40:31.149Z,52.77
2019-02-06T07:43:00.000Z,55.40
2019-02-06T07:45:29.478Z,46.87
2019-02-06T07:47:58.336Z,49.60
2019-02-06T07:50:30.084Z,52.00
2019-02-06T07:52:59.571Z,51.50
2019-02-06T07:55:46.825Z,51.30
2019-02-06T07:58:15.603Z,57.73
2019-02-06T08:00:46.144Z,47.97
2019-02-06T08:03:15.055Z,53.97
2019-02-06T08:05:44.070Z,51.10
2019-02-06T08:08:13.292Z,50.70
2019-02-06T08:10:42.211Z,51.17
2019-02-06T08:13:10.946Z,50.67
2019-02-06T08:15:39.852Z,41.10
2019-02-06T08:18:08.740Z,50.93
2019-02-06T08:20:38.182Z,58.33
2019-02-06T08:23:07.127Z,46.03
2019-02-06T08:25:36.034Z,53.43
2019-02-06T08:28:04.973Z,50.70
2019-02-06T08:30:41.301Z,47.40
2019-02-06T08:33:10.261Z,50.13
2019-02-06T08:35:39.148Z,47.40
2019-02-06T08:38:08.603Z,48.40
2019-02-06T08:40:37.430Z,50.90
2019-02-06T08:43:07.043Z,44.77
2019-02-06T08:45:36.066Z,48.50
2019-02-06T08:48:05.319Z,52.30
2019-02-06T08:50:34.133Z,45.30
2019-02-06T08:53:03.035Z,50.50
2019-02-06T08:55:34.877Z,48.20
2019-02-06T08:58:04.182Z,46.93
2019-02-06T09:00:35.305Z,44.63
2019-02-06T09:03:10.986Z,50.30
2019-02-06T09:05:39.828Z,41.57
2019-02-06T09:08:09.177Z,46.37
2019-02-06T09:10:37.988Z,46.63
2019-02-06T09:13:06.985Z,47.70
2019-02-06T09:15:37.743Z,43.60
2019-02-06T09:18:07.190Z,46.10
2019-02-06T09:20:36.247Z,46.53
2019-02-06T09:23:05.648Z,50.87
2019-02-06T09:25:34.562Z,44.57
2019-02-06T09:28:03.558Z,43.23
2019-02-06T09:30:36.707Z,42.63
2019-02-06T09:33:06.751Z,39.87
2019-02-06T09:35:35.755Z,44.27
2019-02-06T09:38:05.424Z,40.57
2019-02-06T09:40:34.152Z,44.17
2019-02-06T09:43:02.944Z,40.20
2019-02-06T09:45:31.750Z,45.70
2019-02-06T09:48:00.753Z,39.50
2019-02-06T09:50:33.884Z,38.73
2019-02-06T09:53:03.017Z,42.03
2019-02-06T09:55:32.007Z,36.87
2019-02-06T09:58:00.819Z,38.00
2019-02-06T10:00:32.350Z,33.53
2019-02-06T10:03:01.753Z,37.87
2019-02-06T10:05:31.167Z,39.83
2019-02-06T10:07:59.913Z,37.70
2019-02-06T10:10:29.975Z,43.43
2019-02-06T10:12:58.830Z,38.37
2019-02-06T10:15:36.005Z,40.47
2019-02-06T10:18:05.743Z,42.27
2019-02-06T10:20:38.109Z,39.57
2019-02-06T10:23:07.875Z,37.67
2019-02-06T10:25:37.340Z,38.70
2019-02-06T10:28:06.226Z,41.13
2019-02-06T10:30:37.790Z,42.27
2019-02-06T10:33:06.625Z,37.27
2019-02-06T10:35:35.551Z,42.83
2019-02-06T10:38:04.960Z,44.97
2019-02-06T10:40:33.976Z,45.20
2019-02-06T10:43:02.713Z,37.27
2019-02-06T10:45:31.669Z,40.80
2019-02-06T10:48:00.483Z,39.17
2019-02-06T10:50:32.473Z,43.90
2019-02-06T10:53:01.345Z,45.30
2019-02-06T10:55:30.261Z,41.43
2019-02-06T10:57:59.220Z,41.17
2019-02-06T11:00:31.136Z,43.40
2019-02-06T11:03:00.038Z,47.70
2019-02-06T11:05:28.928Z,43.60
2019-02-06T11:07:57.821Z,44.07
2019-02-06T11:10:28.001Z,49.97
2019-02-06T11:12:56.780Z,44.20
2019-02-06T11:15:26.501Z,38.07
2019-02-06T11:17:55.882Z,43.47
2019-02-06T11:20:27.252Z,44.07
2019-02-06T11:22:56.118Z,47.63
2019-02-06T11:25:25.128Z,44.70
2019-02-06T11:27:54.030Z,40.47
2019-02-06T11:30:25.244Z,44.90
2019-02-06T11:32:54.590Z,39.80
2019-02-06T11:35:23.446Z,41.37
2019-02-06T11:37:52.236Z,40.00
2019-02-06T11:40:23.714Z,41.67
2019-02-06T11:42:53.784Z,40.57
2019-02-06T11:45:33.327Z,46.70
2019-02-06T11:48:02.340Z,40.50
2019-02-06T11:50:41.816Z,41.60
2019-02-06T11:53:13.012Z,45.37
2019-02-06T11:55:42.120Z,45.20
2019-02-06T11:58:11.655Z,42.33
2019-02-06T12:00:52.952Z,45.00
2019-02-06T12:03:22.380Z,40.87
2019-02-06T12:05:51.340Z,44.57
2019-02-06T12:08:20.129Z,42.50
2019-02-06T12:10:49.735Z,39.00
2019-02-06T12:13:18.476Z,41.83
2019-02-06T12:15:47.384Z,45.50
2019-02-06T12:18:16.504Z,45.97
2019-02-06T12:20:45.409Z,42.00
2019-02-06T12:23:14.311Z,40.37
2019-02-06T12:25:47.800Z,38.57
2019-02-06T12:28:16.892Z,38.87
2019-02-06T12:30:45.841Z,39.03
2019-02-06T12:33:14.665Z,38.57
2019-02-06T12:35:45.052Z,39.93
2019-02-06T12:38:14.223Z,41.33
2019-02-06T12:40:43.164Z,40.23
2019-02-06T12:43:11.980Z,36.87
2019-02-06T12:45:40.831Z,36.93
2019-02-06T12:48:09.869Z,37.60
2019-02-06T12:50:38.790Z,36.77
2019-02-06T12:53:07.748Z,40.17
2019-02-06T12:55:39.466Z,35.97
2019-02-06T12:58:09.425Z,35.13
2019-02-06T13:00:41.684Z,37.63
2019-02-06T13:03:10.498Z,37.90
2019-02-06T13:05:39.352Z,32.63
2019-02-06T13:08:08.348Z,42.70
2019-02-06T13:10:37.044Z,33.03
2019-02-06T13:13:06.036Z,35.53
2019-02-06T13:15:35.239Z,35.20
2019-02-06T13:18:04.519Z,28.53
2019-02-06T13:20:35.630Z,29.60
2019-02-06T13:23:05.702Z,36.97
2019-02-06T13:25:34.592Z,30.83
2019-02-06T13:28:04.254Z,30.37
2019-02-06T13:30:36.218Z,36.97
2019-02-06T13:33:07.394Z,32.40
2019-02-06T13:35:37.242Z,29.10
2019-02-06T13:38:06.281Z,34.17
2019-02-06T13:40:45.162Z,31.50
2019-02-06T13:43:06.251Z,33.63
2019-02-06T13:45:38.251Z,36.37
2019-02-06T13:48:07.154Z,35.73
2019-02-06T13:50:36.141Z,33.60
2019-02-06T13:53:05.982Z,35.83
2019-02-06T13:55:34.775Z,37.37
2019-02-06T13:58:03.798Z,42.77
2019-02-06T14:00:41.327Z,36.70
2019-02-06T14:03:10.309Z,41.23
2019-02-06T14:05:39.959Z,38.93
2019-02-06T14:08:11.733Z,37.67
2019-02-06T14:10:40.690Z,39.33
2019-02-06T14:13:09.479Z,30.77
2019-02-06T14:15:47.020Z,37.57
2019-02-06T14:18:15.937Z,36.43
2019-02-06T14:20:46.586Z,32.60
2019-02-06T14:23:24.373Z,38.23
2019-02-06T14:26:14.400Z,39.73
2019-02-06T14:29:08.770Z,32.83
2019-02-06T14:32:01.781Z,34.20
2019-02-06T14:34:36.152Z,35.07
2019-02-06T14:37:33.198Z,36.10
2019-02-06T14:40:14.055Z,34.07
2019-02-06T14:43:00.807Z,31.57
2019-02-06T14:45:51.838Z,31.33
2019-02-06T14:48:35.518Z,32.80
2019-02-06T14:51:23.625Z,30.30
2019-02-06T14:54:01.366Z,36.03
2019-02-06T14:56:42.495Z,37.03
2019-02-06T14:59:20.465Z,34.47
2019-02-06T15:02:01.177Z,41.87
2019-02-06T15:04:41.879Z,34.93
2019-02-06T15:08:25.934Z,39.30
2019-02-06T15:10:20.242Z,39.03
2019-02-06T15:13:04.164Z,38.63
2019-02-06T15:15:36.090Z,36.37
2019-02-06T15:18:29.222Z,37.03
2019-02-06T15:21:01.191Z,36.83
2019-02-06T15:23:38.656Z,43.77
2019-02-06T15:26:22.852Z,44.07
2019-02-06T15:29:20.596Z,42.00
2019-02-06T15:32:10.429Z,40.57
2019-02-06T15:34:59.389Z,39.90
2019-02-06T15:37:43.506Z,39.77
2019-02-06T15:40:27.703Z,44.37
2019-02-06T15:43:23.662Z,42.57
2019-02-06T15:46:13.215Z,39.40
2019-02-06T15:48:47.706Z,38.03
2019-02-06T15:51:42.234Z,46.17
2019-02-06T15:54:42.641Z,42.37
2019-02-06T15:57:47.776Z,42.30
2019-02-06T16:00:34.872Z,36.93
2019-02-06T16:03:07.546Z,39.03
2019-02-06T16:06:17.764Z,47.43
2019-02-06T16:09:01.298Z,40.73
2019-02-06T16:11:42.002Z,45.77
2019-02-06T16:14:24.684Z,40.03
2019-02-06T16:17:20.772Z,40.40
2019-02-06T16:20:07.575Z,39.57
2019-02-06T16:22:59.751Z,39.03
2019-02-06T16:25:34.309Z,38.77
2019-02-06T16:28:14.737Z,43.70
2019-02-06T16:31:05.430Z,39.90
2019-02-06T16:33:46.093Z,43.33
2019-02-06T16:36:26.797Z,41.23
2019-02-06T16:39:06.540Z,44.07
2019-02-06T16:41:53.359Z,45.27
2019-02-06T16:44:40.187Z,38.97
2019-02-06T16:47:45.824Z,38.83
2019-02-06T16:50:18.775Z,38.63
2019-02-06T16:53:07.365Z,41.20
2019-02-06T16:55:56.025Z,41.07
2019-02-06T16:58:42.813Z,44.37
2019-02-06T17:01:20.913Z,48.67
2019-02-06T17:04:08.192Z,45.03
2019-02-06T17:07:06.699Z,45.00
2019-02-06T17:09:44.410Z,46.50
2019-02-06T17:12:27.506Z,44.33
2019-02-06T17:15:15.945Z,45.83
2019-02-06T17:18:14.967Z,52.00
2019-02-06T17:20:55.567Z,42.57
2019-02-06T17:23:42.587Z,47.43
2019-02-06T17:26:35.889Z,54.83
2019-02-06T17:29:13.812Z,51.03
2019-02-06T17:32:01.750Z,42.70
2019-02-06T17:34:45.637Z,42.37
2019-02-06T17:37:34.028Z,46.63
2019-02-06T17:40:28.527Z,47.87
2019-02-06T17:43:11.839Z,38.40
2019-02-06T17:45:58.947Z,48.97
2019-02-06T17:48:48.638Z,43.57
2019-02-06T17:51:46.504Z,45.07
2019-02-06T17:54:24.570Z,54.10
2019-02-06T17:56:53.460Z,56.00
2019-02-06T17:59:22.236Z,55.63
2019-02-06T18:01:51.345Z,67.27
2019-02-06T18:04:20.375Z,61.50
2019-02-06T18:06:49.800Z,58.37
2019-02-06T18:09:18.838Z,67.70
2019-02-06T18:11:51.278Z,74.60
2019-02-06T18:14:20.349Z,70.37
2019-02-06T18:16:50.259Z,65.13
2019-02-06T18:19:20.210Z,69.43
2019-02-06T18:21:50.957Z,62.73
2019-02-06T18:24:19.919Z,61.57
2019-02-06T18:26:48.908Z,65.20
2019-02-06T18:29:23.331Z,59.77
2019-02-06T18:32:09.769Z,61.33
2019-02-06T18:34:39.220Z,65.80
2019-02-06T18:37:07.985Z,65.70
2019-02-06T18:39:38.282Z,57.33
2019-02-06T18:42:07.284Z,55.30
2019-02-06T18:44:36.159Z,64.27
2019-02-06T18:47:05.179Z,57.80
2019-02-06T18:49:35.657Z,61.17
2019-02-06T18:52:05.712Z,61.50
2019-02-06T18:54:34.577Z,55.20
2019-02-06T18:57:03.449Z,59.87
2019-02-06T18:59:32.443Z,69.10
2019-02-06T19:02:01.483Z,69.27
2019-02-06T19:04:30.509Z,67.83
2019-02-06T19:06:59.746Z,69.87
2019-02-06T19:09:29.032Z,69.27
2019-02-06T19:11:58.492Z,75.00
2019-02-06T19:14:29.375Z,69.27
2019-02-06T19:16:59.378Z,73.23
2019-02-06T19:19:28.286Z,75.63
2019-02-06T19:21:57.121Z,81.30
2019-02-06T19:24:26.335Z,75.00
2019-02-06T19:26:55.269Z,76.33
2019-02-06T19:29:24.551Z,77.90
2019-02-06T19:31:53.483Z,83.03
2019-02-06T19:34:22.726Z,81.70
2019-02-06T19:36:51.666Z,82.63
2019-02-06T19:39:20.669Z,78.03
2019-02-06T19:41:51.277Z,85.43
2019-02-06T19:44:20.286Z,87.00
2019-02-06T19:46:49.381Z,85.10
2019-02-06T19:49:18.507Z,89.53
2019-02-06T19:51:47.642Z,87.47
2019-02-06T19:54:19.934Z,99.97
2019-02-06T19:56:48.858Z,89.50
2019-02-06T19:59:25.576Z,96.00
2019-02-06T20:01:54.890Z,89.43
2019-02-06T20:04:23.699Z,97.37
2019-02-06T20:06:54.188Z,101.40
2019-02-06T20:09:23.429Z,96.33
2019-02-06T20:11:52.261Z,100.10
2019-02-06T20:14:21.258Z,98.37
2019-02-06T20:16:50.126Z,96.97
2019-02-06T20:19:20.733Z,90.77
2019-02-06T20:21:49.623Z,96.63
2019-02-06T20:24:18.637Z,103.90
2019-02-06T20:26:50.463Z,97.97
2019-02-06T20:29:21.426Z,97.17
2019-02-06T20:31:50.225Z,94.73
2019-02-06T20:34:19.152Z,97.37
2019-02-06T20:36:49.632Z,110.23
2019-02-06T20:39:18.335Z,101.40
2019-02-06T20:41:47.105Z,101.63
2019-02-06T20:44:15.979Z,94.23
2019-02-06T20:47:03.396Z,105.03
2019-02-06T20:49:34.085Z,101.70
2019-02-06T20:52:04.277Z,98.63
2019-02-06T20:54:34.796Z,107.23
2019-02-06T20:57:12.258Z,90.07
2019-02-06T20:59:34.123Z,100.50
2019-02-06T21:02:03.582Z,101.37
2019-02-06T21:04:32.766Z,99.77
2019-02-06T21:07:01.817Z,97.47
2019-02-06T21:09:30.726Z,106.33
2019-02-06T21:11:59.730Z,105.60
2019-02-06T21:14:31.116Z,106.63
2019-02-06T21:17:06.720Z,103.63
2019-02-06T21:19:38.815Z,100.43
2019-02-06T21:22:07.912Z,111.50
2019-02-06T21:24:36.962Z,103.80
2019-02-06T21:27:05.956Z,103.23
2019-02-06T21:29:34.910Z,95.47
2019-02-06T21:32:03.908Z,104.83
2019-02-06T21:34:34.980Z,113.93
2019-02-06T21:37:03.909Z,118.07
2019-02-06T21:39:32.883Z,111.40
2019-02-06T21:42:01.811Z,109.37
2019-02-06T21:44:30.881Z,107.83
2019-02-06T21:47:00.939Z,112.43
2019-02-06T21:49:52.336Z,118.07
2019-02-06T21:52:21.327Z,116.57
2019-02-06T21:54:50.209Z,114.10
2019-02-06T21:57:19.124Z,122.57
2019-02-06T21:59:48.493Z,111.53
2019-02-06T22:02:17.274Z,106.37
2019-02-06T22:04:48.548Z,116.37
2019-02-06T22:07:21.040Z,114.23
2019-02-06T22:09:52.950Z,121.90
2019-02-06T22:12:21.776Z,118.33
2019-02-06T22:14:52.016Z,113.47
2019-02-06T22:17:20.798Z,106.77
2019-02-06T22:19:50.886Z,104.23
2019-02-06T22:22:19.794Z,117.77
2019-02-06T22:24:48.869Z,107.90
2019-02-06T22:27:18.275Z,115.17
2019-02-06T22:29:50.430Z,110.07
2019-02-06T22:32:19.574Z,113.07
2019-02-06T22:34:52.673Z,109.27
2019-02-06T22:37:21.641Z,105.77
2019-02-06T22:39:50.485Z,102.30
2019-02-06T22:42:51.007Z,102.27
2019-02-06T22:45:24.503Z,98.87
2019-02-06T22:47:56.548Z,99.13
2019-02-06T22:50:29.963Z,94.80
2019-02-06T22:52:59.101Z,100.67
2019-02-06T22:55:28.184Z,97.77
2019-02-06T22:57:57.729Z,99.90
2019-02-06T23:00:43.210Z,109.10
2019-02-06T23:03:16.632Z,109.90
2019-02-06T23:05:50.353Z,100.80
2019-02-06T23:08:39.426Z,107.23
2019-02-06T23:11:18.530Z,109.57
2019-02-06T23:16:53.428Z,119.50
2019-02-06T23:19:22.284Z,115.60
2019-02-06T23:21:52.568Z,108.80
2019-02-06T23:24:24.655Z,111.67
2019-02-06T23:26:57.965Z,111.77
2019-02-06T23:29:30.748Z,123.17
2019-02-06T23:32:40.165Z,116.80
2019-02-06T23:35:12.881Z,111.47
2019-02-06T23:37:45.819Z,118.40
2019-02-06T23:40:20.034Z,115.60
2019-02-06T23:42:52.198Z,116.20
2019-02-06T23:45:21.679Z,111.27
2019-02-06T23:47:50.522Z,116.03
2019-02-06T23:50:24.092Z,114.03
2019-02-06T23:52:57.791Z,103.93
2019-02-06T23:55:29.439Z,104.27
2019-02-06T23:58:00.808Z,106.47
